sensor_id;sensor_type;location;lat;lon;timestamp;P1;durP1;ratioP1;P2;durP2;ratioP2
39426;SDS011;25938;48.470;1.486;2023-06-24T00:01:30;3.58;;;2.65;;
39426;SDS011;25938;48.470;1.486;2023-06-24T00:03:56;2.92;;;2.50;;
39426;SDS011;25938;48.470;1.486;2023-06-24T00:06:22;2.47;;;2.30;;
39426;SDS011;25938;48.470;1.486;2023-06-24T00:08:51;4.97;;;2.28;;
39426;SDS011;25938;48.470;1.486;2023-06-24T00:11:17;2.47;;;2.28;;
39426;SDS011;25938;48.470;1.486;2023-06-24T00:13:44;3.08;;;2.53;;
39426;SDS011;25938;48.470;1.486;2023-06-24T00:16:10;3.88;;;2.42;;
39426;SDS011;25938;48.470;1.486;2023-06-24T00:18:37;3.17;;;2.45;;
39426;SDS011;25938;48.470;1.486;2023-06-24T00:21:06;3.05;;;2.55;;
39426;SDS011;25938;48.470;1.486;2023-06-24T00:23:32;3.67;;;2.97;;
39426;SDS011;25938;48.470;1.486;2023-06-24T00:26:01;3.80;;;2.30;;
39426;SDS011;25938;48.470;1.486;2023-06-24T00:28:27;2.42;;;2.15;;
39426;SDS011;25938;48.470;1.486;2023-06-24T00:30:53;2.90;;;2.60;;
39426;SDS011;25938;48.470;1.486;2023-06-24T00:33:19;3.00;;;2.30;;
39426;SDS011;25938;48.470;1.486;2023-06-24T00:35:46;2.50;;;2.20;;
39426;SDS011;25938;48.470;1.486;2023-06-24T00:38:12;4.07;;;2.33;;
39426;SDS011;25938;48.470;1.486;2023-06-24T00:40:38;3.10;;;2.50;;
39426;SDS011;25938;48.470;1.486;2023-06-24T00:43:05;4.38;;;3.70;;
39426;SDS011;25938;48.470;1.486;2023-06-24T00:45:32;3.40;;;2.50;;
39426;SDS011;25938;48.470;1.486;2023-06-24T00:47:58;3.17;;;2.25;;
39426;SDS011;25938;48.470;1.486;2023-06-24T00:50:26;2.50;;;2.13;;
39426;SDS011;25938;48.470;1.486;2023-06-24T00:52:52;2.88;;;2.63;;
39426;SDS011;25938;48.470;1.486;2023-06-24T00:55:18;4.13;;;2.50;;
39426;SDS011;25938;48.470;1.486;2023-06-24T00:57:49;3.05;;;2.53;;
39426;SDS011;25938;48.470;1.486;2023-06-24T01:00:18;4.13;;;2.33;;
39426;SDS011;25938;48.470;1.486;2023-06-24T01:02:46;2.65;;;2.35;;
39426;SDS011;25938;48.470;1.486;2023-06-24T01:05:13;3.15;;;2.13;;
39426;SDS011;25938;48.470;1.486;2023-06-24T01:07:39;3.65;;;2.53;;
39426;SDS011;25938;48.470;1.486;2023-06-24T01:10:06;4.15;;;3.42;;
39426;SDS011;25938;48.470;1.486;2023-06-24T01:12:36;3.65;;;2.75;;
39426;SDS011;25938;48.470;1.486;2023-06-24T01:15:09;3.30;;;2.45;;
39426;SDS011;25938;48.470;1.486;2023-06-24T01:17:37;4.68;;;2.40;;
39426;SDS011;25938;48.470;1.486;2023-06-24T01:33:13;2.53;;;2.33;;
39426;SDS011;25938;48.470;1.486;2023-06-24T01:35:41;1.98;;;1.80;;
39426;SDS011;25938;48.470;1.486;2023-06-24T01:38:08;3.28;;;2.72;;
39426;SDS011;25938;48.470;1.486;2023-06-24T01:40:36;3.65;;;2.28;;
39426;SDS011;25938;48.470;1.486;2023-06-24T01:43:05;2.83;;;2.33;;
39426;SDS011;25938;48.470;1.486;2023-06-24T01:45:32;2.38;;;1.90;;
39426;SDS011;25938;48.470;1.486;2023-06-24T01:48:05;4.05;;;2.53;;
39426;SDS011;25938;48.470;1.486;2023-06-24T01:50:33;2.28;;;1.88;;
39426;SDS011;25938;48.470;1.486;2023-06-24T01:52:59;3.20;;;2.53;;
39426;SDS011;25938;48.470;1.486;2023-06-24T01:55:26;3.17;;;2.40;;
39426;SDS011;25938;48.470;1.486;2023-06-24T01:57:54;2.67;;;2.47;;
39426;SDS011;25938;48.470;1.486;2023-06-24T02:00:20;2.90;;;2.67;;
39426;SDS011;25938;48.470;1.486;2023-06-24T02:02:47;2.38;;;2.20;;
39426;SDS011;25938;48.470;1.486;2023-06-24T02:05:13;3.95;;;2.50;;
39426;SDS011;25938;48.470;1.486;2023-06-24T02:07:40;3.13;;;2.17;;
39426;SDS011;25938;48.470;1.486;2023-06-24T02:10:07;5.47;;;2.28;;
39426;SDS011;25938;48.470;1.486;2023-06-24T02:12:34;2.40;;;2.20;;
39426;SDS011;25938;48.470;1.486;2023-06-24T02:15:00;3.80;;;2.03;;
39426;SDS011;25938;48.470;1.486;2023-06-24T02:17:28;3.17;;;2.35;;
39426;SDS011;25938;48.470;1.486;2023-06-24T02:19:54;3.58;;;2.15;;
39426;SDS011;25938;48.470;1.486;2023-06-24T02:22:21;2.50;;;2.30;;
39426;SDS011;25938;48.470;1.486;2023-06-24T02:24:48;3.10;;;2.17;;
39426;SDS011;25938;48.470;1.486;2023-06-24T02:27:15;2.63;;;2.38;;
39426;SDS011;25938;48.470;1.486;2023-06-24T02:29:42;4.05;;;2.53;;
39426;SDS011;25938;48.470;1.486;2023-06-24T02:32:08;3.65;;;2.13;;
39426;SDS011;25938;48.470;1.486;2023-06-24T02:34:35;2.63;;;2.13;;
39426;SDS011;25938;48.470;1.486;2023-06-24T02:37:01;3.35;;;2.38;;
39426;SDS011;25938;48.470;1.486;2023-06-24T02:39:27;4.75;;;2.38;;
39426;SDS011;25938;48.470;1.486;2023-06-24T02:41:53;2.53;;;2.10;;
39426;SDS011;25938;48.470;1.486;2023-06-24T02:44:19;2.45;;;2.25;;
39426;SDS011;25938;48.470;1.486;2023-06-24T02:46:45;3.22;;;2.58;;
39426;SDS011;25938;48.470;1.486;2023-06-24T02:49:12;2.33;;;1.90;;
39426;SDS011;25938;48.470;1.486;2023-06-24T02:51:39;3.13;;;2.22;;
39426;SDS011;25938;48.470;1.486;2023-06-24T02:54:06;5.15;;;4.85;;
39426;SDS011;25938;48.470;1.486;2023-06-24T02:56:32;3.33;;;3.10;;
39426;SDS011;25938;48.470;1.486;2023-06-24T02:58:59;3.03;;;2.15;;
39426;SDS011;25938;48.470;1.486;2023-06-24T03:01:25;2.92;;;2.35;;
39426;SDS011;25938;48.470;1.486;2023-06-24T03:03:55;3.28;;;2.22;;
39426;SDS011;25938;48.470;1.486;2023-06-24T03:06:22;2.00;;;1.75;;
39426;SDS011;25938;48.470;1.486;2023-06-24T03:08:48;2.17;;;1.98;;
39426;SDS011;25938;48.470;1.486;2023-06-24T03:11:15;4.90;;;2.35;;
39426;SDS011;25938;48.470;1.486;2023-06-24T03:13:41;2.85;;;2.40;;
39426;SDS011;25938;48.470;1.486;2023-06-24T03:16:07;4.72;;;2.35;;
39426;SDS011;25938;48.470;1.486;2023-06-24T03:18:37;2.90;;;2.30;;
39426;SDS011;25938;48.470;1.486;2023-06-24T03:21:03;3.67;;;2.05;;
39426;SDS011;25938;48.470;1.486;2023-06-24T03:23:30;2.70;;;2.50;;
39426;SDS011;25938;48.470;1.486;2023-06-24T03:25:56;2.60;;;2.22;;
39426;SDS011;25938;48.470;1.486;2023-06-24T03:28:22;4.32;;;2.72;;
39426;SDS011;25938;48.470;1.486;2023-06-24T03:30:48;3.53;;;2.42;;
39426;SDS011;25938;48.470;1.486;2023-06-24T03:33:14;3.20;;;2.15;;
39426;SDS011;25938;48.470;1.486;2023-06-24T03:35:42;3.08;;;2.42;;
39426;SDS011;25938;48.470;1.486;2023-06-24T03:38:08;3.85;;;2.70;;
39426;SDS011;25938;48.470;1.486;2023-06-24T03:40:34;2.97;;;2.67;;
39426;SDS011;25938;48.470;1.486;2023-06-24T03:43:00;2.97;;;2.10;;
39426;SDS011;25938;48.470;1.486;2023-06-24T03:45:26;2.78;;;1.95;;
39426;SDS011;25938;48.470;1.486;2023-06-24T03:47:52;2.72;;;2.53;;
39426;SDS011;25938;48.470;1.486;2023-06-24T03:50:18;3.60;;;2.33;;
39426;SDS011;25938;48.470;1.486;2023-06-24T03:52:44;3.97;;;2.97;;
39426;SDS011;25938;48.470;1.486;2023-06-24T03:55:10;2.88;;;2.17;;
39426;SDS011;25938;48.470;1.486;2023-06-24T03:57:37;3.63;;;2.15;;
39426;SDS011;25938;48.470;1.486;2023-06-24T04:00:03;3.78;;;2.05;;
39426;SDS011;25938;48.470;1.486;2023-06-24T04:02:40;2.58;;;2.38;;
39426;SDS011;25938;48.470;1.486;2023-06-24T04:05:07;4.00;;;2.33;;
39426;SDS011;25938;48.470;1.486;2023-06-24T04:07:33;2.78;;;2.00;;
39426;SDS011;25938;48.470;1.486;2023-06-24T04:10:00;4.97;;;2.60;;
39426;SDS011;25938;48.470;1.486;2023-06-24T04:12:26;3.58;;;2.40;;
39426;SDS011;25938;48.470;1.486;2023-06-24T04:14:52;2.47;;;1.92;;
39426;SDS011;25938;48.470;1.486;2023-06-24T04:17:18;3.80;;;2.10;;
39426;SDS011;25938;48.470;1.486;2023-06-24T04:19:44;2.75;;;2.47;;
39426;SDS011;25938;48.470;1.486;2023-06-24T04:22:10;3.90;;;2.80;;
39426;SDS011;25938;48.470;1.486;2023-06-24T04:24:36;3.38;;;2.70;;
39426;SDS011;25938;48.470;1.486;2023-06-24T04:27:03;3.90;;;2.75;;
39426;SDS011;25938;48.470;1.486;2023-06-24T04:29:29;3.70;;;2.60;;
39426;SDS011;25938;48.470;1.486;2023-06-24T04:31:55;3.15;;;2.30;;
39426;SDS011;25938;48.470;1.486;2023-06-24T04:34:21;3.67;;;2.42;;
39426;SDS011;25938;48.470;1.486;2023-06-24T04:36:47;4.35;;;2.33;;
39426;SDS011;25938;48.470;1.486;2023-06-24T04:39:12;2.60;;;2.40;;
39426;SDS011;25938;48.470;1.486;2023-06-24T04:41:38;5.80;;;2.38;;
39426;SDS011;25938;48.470;1.486;2023-06-24T04:44:04;4.47;;;3.17;;
39426;SDS011;25938;48.470;1.486;2023-06-24T04:46:30;4.00;;;2.30;;
39426;SDS011;25938;48.470;1.486;2023-06-24T04:48:58;3.17;;;2.85;;
39426;SDS011;25938;48.470;1.486;2023-06-24T04:51:24;4.95;;;2.65;;
39426;SDS011;25938;48.470;1.486;2023-06-24T04:53:50;3.90;;;2.53;;
39426;SDS011;25938;48.470;1.486;2023-06-24T04:56:16;4.80;;;2.67;;
39426;SDS011;25938;48.470;1.486;2023-06-24T04:58:42;6.65;;;2.63;;
39426;SDS011;25938;48.470;1.486;2023-06-24T05:01:08;2.75;;;2.55;;
39426;SDS011;25938;48.470;1.486;2023-06-24T05:03:34;4.85;;;2.75;;
39426;SDS011;25938;48.470;1.486;2023-06-24T05:06:00;3.47;;;2.53;;
39426;SDS011;25938;48.470;1.486;2023-06-24T05:08:26;4.68;;;3.05;;
39426;SDS011;25938;48.470;1.486;2023-06-24T05:10:52;5.68;;;3.05;;
39426;SDS011;25938;48.470;1.486;2023-06-24T05:13:18;7.68;;;3.78;;
39426;SDS011;25938;48.470;1.486;2023-06-24T05:15:44;4.43;;;2.97;;
39426;SDS011;25938;48.470;1.486;2023-06-24T05:18:10;5.03;;;3.15;;
39426;SDS011;25938;48.470;1.486;2023-06-24T05:20:36;3.47;;;2.72;;
39426;SDS011;25938;48.470;1.486;2023-06-24T05:23:02;4.53;;;2.53;;
39426;SDS011;25938;48.470;1.486;2023-06-24T05:25:28;3.00;;;2.47;;
39426;SDS011;25938;48.470;1.486;2023-06-24T05:27:54;3.00;;;2.63;;
39426;SDS011;25938;48.470;1.486;2023-06-24T05:30:20;4.22;;;2.75;;
39426;SDS011;25938;48.470;1.486;2023-06-24T05:32:46;5.07;;;3.22;;
39426;SDS011;25938;48.470;1.486;2023-06-24T05:35:12;4.97;;;3.00;;
39426;SDS011;25938;48.470;1.486;2023-06-24T05:37:38;4.18;;;2.70;;
39426;SDS011;25938;48.470;1.486;2023-06-24T05:40:04;3.47;;;3.17;;
39426;SDS011;25938;48.470;1.486;2023-06-24T05:42:31;5.25;;;2.65;;
39426;SDS011;25938;48.470;1.486;2023-06-24T05:44:58;3.53;;;2.80;;
39426;SDS011;25938;48.470;1.486;2023-06-24T05:47:24;4.07;;;3.67;;
39426;SDS011;25938;48.470;1.486;2023-06-24T05:49:50;5.28;;;2.70;;
39426;SDS011;25938;48.470;1.486;2023-06-24T05:52:16;3.35;;;2.45;;
39426;SDS011;25938;48.470;1.486;2023-06-24T05:54:42;3.40;;;3.05;;
39426;SDS011;25938;48.470;1.486;2023-06-24T05:57:08;4.93;;;2.65;;
39426;SDS011;25938;48.470;1.486;2023-06-24T05:59:35;5.00;;;2.80;;
39426;SDS011;25938;48.470;1.486;2023-06-24T06:02:01;6.60;;;2.95;;
39426;SDS011;25938;48.470;1.486;2023-06-24T06:04:28;9.20;;;4.78;;
39426;SDS011;25938;48.470;1.486;2023-06-24T06:06:54;4.88;;;2.55;;
39426;SDS011;25938;48.470;1.486;2023-06-24T06:09:20;3.83;;;2.13;;
39426;SDS011;25938;48.470;1.486;2023-06-24T06:11:46;4.15;;;3.75;;
39426;SDS011;25938;48.470;1.486;2023-06-24T06:14:12;6.15;;;2.78;;
39426;SDS011;25938;48.470;1.486;2023-06-24T06:16:39;4.25;;;2.72;;
39426;SDS011;25938;48.470;1.486;2023-06-24T06:19:05;3.97;;;2.85;;
39426;SDS011;25938;48.470;1.486;2023-06-24T06:21:31;4.47;;;2.58;;
39426;SDS011;25938;48.470;1.486;2023-06-24T06:23:57;3.03;;;2.60;;
39426;SDS011;25938;48.470;1.486;2023-06-24T06:26:23;2.80;;;2.45;;
39426;SDS011;25938;48.470;1.486;2023-06-24T06:28:50;6.55;;;3.55;;
39426;SDS011;25938;48.470;1.486;2023-06-24T06:31:18;2.97;;;2.25;;
39426;SDS011;25938;48.470;1.486;2023-06-24T06:33:44;4.65;;;2.63;;
39426;SDS011;25938;48.470;1.486;2023-06-24T06:36:10;3.15;;;2.05;;
39426;SDS011;25938;48.470;1.486;2023-06-24T06:38:36;3.67;;;2.10;;
39426;SDS011;25938;48.470;1.486;2023-06-24T06:41:02;3.03;;;2.38;;
39426;SDS011;25938;48.470;1.486;2023-06-24T06:43:28;3.35;;;2.63;;
39426;SDS011;25938;48.470;1.486;2023-06-24T06:45:54;2.88;;;2.33;;
39426;SDS011;25938;48.470;1.486;2023-06-24T06:48:20;2.63;;;1.90;;
39426;SDS011;25938;48.470;1.486;2023-06-24T06:50:46;2.55;;;2.00;;
39426;SDS011;25938;48.470;1.486;2023-06-24T06:53:12;4.05;;;2.35;;
39426;SDS011;25938;48.470;1.486;2023-06-24T06:55:39;3.40;;;2.17;;
39426;SDS011;25938;48.470;1.486;2023-06-24T06:58:05;2.17;;;1.60;;
39426;SDS011;25938;48.470;1.486;2023-06-24T07:00:31;4.00;;;2.20;;
39426;SDS011;25938;48.470;1.486;2023-06-24T07:02:57;2.40;;;2.20;;
39426;SDS011;25938;48.470;1.486;2023-06-24T07:05:23;2.03;;;1.90;;
39426;SDS011;25938;48.470;1.486;2023-06-24T07:07:49;3.33;;;2.17;;
39426;SDS011;25938;48.470;1.486;2023-06-24T07:10:15;2.97;;;2.40;;
39426;SDS011;25938;48.470;1.486;2023-06-24T07:12:42;4.10;;;2.47;;
39426;SDS011;25938;48.470;1.486;2023-06-24T07:15:08;3.03;;;2.08;;
39426;SDS011;25938;48.470;1.486;2023-06-24T07:17:35;2.97;;;2.15;;
39426;SDS011;25938;48.470;1.486;2023-06-24T07:20:01;4.30;;;1.67;;
39426;SDS011;25938;48.470;1.486;2023-06-24T07:22:27;2.92;;;1.70;;
39426;SDS011;25938;48.470;1.486;2023-06-24T07:24:55;2.00;;;1.80;;
39426;SDS011;25938;48.470;1.486;2023-06-24T07:27:21;2.00;;;1.80;;
39426;SDS011;25938;48.470;1.486;2023-06-24T07:29:47;2.83;;;2.00;;
39426;SDS011;25938;48.470;1.486;2023-06-24T07:32:13;4.45;;;1.95;;
39426;SDS011;25938;48.470;1.486;2023-06-24T07:34:39;5.10;;;1.77;;
39426;SDS011;25938;48.470;1.486;2023-06-24T07:37:05;3.38;;;2.40;;
39426;SDS011;25938;48.470;1.486;2023-06-24T07:39:31;5.07;;;2.00;;
39426;SDS011;25938;48.470;1.486;2023-06-24T07:41:57;3.95;;;2.22;;
39426;SDS011;25938;48.470;1.486;2023-06-24T07:44:23;2.45;;;2.00;;
39426;SDS011;25938;48.470;1.486;2023-06-24T07:46:49;2.15;;;1.95;;
39426;SDS011;25938;48.470;1.486;2023-06-24T07:49:16;3.00;;;2.20;;
39426;SDS011;25938;48.470;1.486;2023-06-24T07:51:42;3.45;;;2.05;;
39426;SDS011;25938;48.470;1.486;2023-06-24T07:54:09;2.75;;;1.80;;
39426;SDS011;25938;48.470;1.486;2023-06-24T07:56:35;2.38;;;2.20;;
39426;SDS011;25938;48.470;1.486;2023-06-24T07:59:02;1.45;;;1.30;;
39426;SDS011;25938;48.470;1.486;2023-06-24T08:01:28;4.60;;;2.03;;
39426;SDS011;25938;48.470;1.486;2023-06-24T08:03:53;3.63;;;2.28;;
39426;SDS011;25938;48.470;1.486;2023-06-24T08:06:19;2.10;;;1.80;;
39426;SDS011;25938;48.470;1.486;2023-06-24T08:08:45;2.08;;;1.20;;
39426;SDS011;25938;48.470;1.486;2023-06-24T08:11:12;1.90;;;1.45;;
39426;SDS011;25938;48.470;1.486;2023-06-24T08:13:38;1.10;;;1.00;;
39426;SDS011;25938;48.470;1.486;2023-06-24T08:16:04;1.90;;;1.45;;
39426;SDS011;25938;48.470;1.486;2023-06-24T08:18:30;1.70;;;1.48;;
39426;SDS011;25938;48.470;1.486;2023-06-24T08:20:56;1.52;;;1.40;;
39426;SDS011;25938;48.470;1.486;2023-06-24T08:23:22;1.50;;;1.20;;
39426;SDS011;25938;48.470;1.486;2023-06-24T08:25:48;2.25;;;1.95;;
39426;SDS011;25938;48.470;1.486;2023-06-24T08:28:14;0.85;;;0.85;;
39426;SDS011;25938;48.470;1.486;2023-06-24T08:30:40;1.77;;;1.48;;
39426;SDS011;25938;48.470;1.486;2023-06-24T08:33:06;2.60;;;1.80;;
39426;SDS011;25938;48.470;1.486;2023-06-24T08:35:32;1.70;;;1.60;;
39426;SDS011;25938;48.470;1.486;2023-06-24T08:37:58;0.95;;;0.93;;
39426;SDS011;25938;48.470;1.486;2023-06-24T08:40:24;1.30;;;1.20;;
39426;SDS011;25938;48.470;1.486;2023-06-24T08:42:50;1.30;;;1.20;;
39426;SDS011;25938;48.470;1.486;2023-06-24T08:45:16;2.63;;;1.70;;
39426;SDS011;25938;48.470;1.486;2023-06-24T08:47:42;1.35;;;1.15;;
39426;SDS011;25938;48.470;1.486;2023-06-24T08:50:11;1.90;;;1.80;;
39426;SDS011;25938;48.470;1.486;2023-06-24T08:52:38;1.23;;;1.00;;
39426;SDS011;25938;48.470;1.486;2023-06-24T08:55:07;1.48;;;1.38;;
39426;SDS011;25938;48.470;1.486;2023-06-24T08:57:36;1.60;;;1.45;;
39426;SDS011;25938;48.470;1.486;2023-06-24T09:00:02;1.50;;;1.13;;
39426;SDS011;25938;48.470;1.486;2023-06-24T09:02:29;0.80;;;0.80;;
39426;SDS011;25938;48.470;1.486;2023-06-24T09:04:57;1.30;;;1.20;;
39426;SDS011;25938;48.470;1.486;2023-06-24T09:07:27;1.27;;;1.15;;
39426;SDS011;25938;48.470;1.486;2023-06-24T09:09:53;2.30;;;1.98;;
39426;SDS011;25938;48.470;1.486;2023-06-24T09:12:20;2.45;;;1.73;;
39426;SDS011;25938;48.470;1.486;2023-06-24T09:14:49;0.90;;;0.90;;
39426;SDS011;25938;48.470;1.486;2023-06-24T09:17:15;1.40;;;1.27;;
39426;SDS011;25938;48.470;1.486;2023-06-24T09:19:41;3.08;;;1.80;;
39426;SDS011;25938;48.470;1.486;2023-06-24T09:22:08;1.77;;;1.40;;
39426;SDS011;25938;48.470;1.486;2023-06-24T09:24:41;2.88;;;2.40;;
39426;SDS011;25938;48.470;1.486;2023-06-24T09:27:10;1.90;;;1.75;;
39426;SDS011;25938;48.470;1.486;2023-06-24T09:29:37;2.72;;;2.15;;
39426;SDS011;25938;48.470;1.486;2023-06-24T09:32:04;1.83;;;1.35;;
39426;SDS011;25938;48.470;1.486;2023-06-24T09:34:30;1.38;;;1.25;;
39426;SDS011;25938;48.470;1.486;2023-06-24T09:36:57;1.30;;;1.20;;
39426;SDS011;25938;48.470;1.486;2023-06-24T09:39:23;1.98;;;1.65;;
39426;SDS011;25938;48.470;1.486;2023-06-24T09:41:56;2.65;;;2.45;;
39426;SDS011;25938;48.470;1.486;2023-06-24T09:44:23;1.55;;;1.38;;
39426;SDS011;25938;48.470;1.486;2023-06-24T09:46:49;2.80;;;2.10;;
39426;SDS011;25938;48.470;1.486;2023-06-24T09:49:15;1.83;;;1.70;;
39426;SDS011;25938;48.470;1.486;2023-06-24T09:51:45;1.13;;;0.88;;
39426;SDS011;25938;48.470;1.486;2023-06-24T09:54:12;0.82;;;0.80;;
39426;SDS011;25938;48.470;1.486;2023-06-24T09:56:50;2.65;;;1.90;;
39426;SDS011;25938;48.470;1.486;2023-06-24T09:59:18;2.17;;;1.60;;
39426;SDS011;25938;48.470;1.486;2023-06-24T10:01:45;1.20;;;1.00;;
39426;SDS011;25938;48.470;1.486;2023-06-24T10:04:15;2.05;;;1.27;;
39426;SDS011;25938;48.470;1.486;2023-06-24T10:06:41;8.95;;;2.15;;
39426;SDS011;25938;48.470;1.486;2023-06-24T10:09:08;0.90;;;0.90;;
39426;SDS011;25938;48.470;1.486;2023-06-24T10:11:34;1.70;;;1.60;;
39426;SDS011;25938;48.470;1.486;2023-06-24T10:14:00;1.17;;;1.10;;
39426;SDS011;25938;48.470;1.486;2023-06-24T10:16:26;1.80;;;1.00;;
39426;SDS011;25938;48.470;1.486;2023-06-24T10:18:52;1.80;;;1.50;;
39426;SDS011;25938;48.470;1.486;2023-06-24T10:21:43;0.77;;;0.68;;
39426;SDS011;25938;48.470;1.486;2023-06-24T10:24:10;2.30;;;1.45;;
39426;SDS011;25938;48.470;1.486;2023-06-24T10:26:36;3.80;;;2.13;;
39426;SDS011;25938;48.470;1.486;2023-06-24T10:36:54;1.40;;;1.30;;
39426;SDS011;25938;48.470;1.486;2023-06-24T10:39:39;2.13;;;2.00;;
39426;SDS011;25938;48.470;1.486;2023-06-24T10:44:51;1.00;;;0.98;;
39426;SDS011;25938;48.470;1.486;2023-06-24T10:47:17;1.08;;;1.08;;
39426;SDS011;25938;48.470;1.486;2023-06-24T10:49:43;1.23;;;1.13;;
39426;SDS011;25938;48.470;1.486;2023-06-24T10:52:10;1.52;;;1.42;;
39426;SDS011;25938;48.470;1.486;2023-06-24T10:54:40;1.35;;;1.02;;
39426;SDS011;25938;48.470;1.486;2023-06-24T10:57:06;1.48;;;1.38;;
39426;SDS011;25938;48.470;1.486;2023-06-24T10:59:39;1.58;;;1.40;;
39426;SDS011;25938;48.470;1.486;2023-06-24T11:02:07;1.30;;;1.20;;
39426;SDS011;25938;48.470;1.486;2023-06-24T11:04:41;2.55;;;2.35;;
39426;SDS011;25938;48.470;1.486;2023-06-24T11:07:07;1.15;;;0.98;;
39426;SDS011;25938;48.470;1.486;2023-06-24T11:09:33;1.55;;;1.45;;
39426;SDS011;25938;48.470;1.486;2023-06-24T11:11:59;2.28;;;1.45;;
39426;SDS011;25938;48.470;1.486;2023-06-24T11:14:27;1.60;;;1.10;;
39426;SDS011;25938;48.470;1.486;2023-06-24T11:16:53;1.17;;;1.08;;
39426;SDS011;25938;48.470;1.486;2023-06-24T11:19:19;0.80;;;0.80;;
39426;SDS011;25938;48.470;1.486;2023-06-24T11:21:45;0.77;;;0.77;;
39426;SDS011;25938;48.470;1.486;2023-06-24T11:24:11;1.27;;;1.17;;
39426;SDS011;25938;48.470;1.486;2023-06-24T11:26:38;1.35;;;1.20;;
39426;SDS011;25938;48.470;1.486;2023-06-24T11:29:11;3.88;;;2.15;;
39426;SDS011;25938;48.470;1.486;2023-06-24T11:31:37;1.10;;;1.10;;
39426;SDS011;25938;48.470;1.486;2023-06-24T11:34:03;2.95;;;1.65;;
39426;SDS011;25938;48.470;1.486;2023-06-24T11:36:29;4.15;;;2.65;;
39426;SDS011;25938;48.470;1.486;2023-06-24T11:38:55;1.23;;;0.90;;
39426;SDS011;25938;48.470;1.486;2023-06-24T11:41:21;1.10;;;0.95;;
39426;SDS011;25938;48.470;1.486;2023-06-24T11:43:48;0.82;;;0.82;;
39426;SDS011;25938;48.470;1.486;2023-06-24T11:46:27;1.38;;;1.27;;
39426;SDS011;25938;48.470;1.486;2023-06-24T11:49:02;1.08;;;1.00;;
39426;SDS011;25938;48.470;1.486;2023-06-24T11:51:28;1.23;;;1.02;;
39426;SDS011;25938;48.470;1.486;2023-06-24T11:53:58;1.67;;;1.25;;
39426;SDS011;25938;48.470;1.486;2023-06-24T11:56:33;1.25;;;1.15;;
39426;SDS011;25938;48.470;1.486;2023-06-24T11:59:00;1.20;;;1.10;;
39426;SDS011;25938;48.470;1.486;2023-06-24T12:01:30;0.85;;;0.85;;
39426;SDS011;25938;48.470;1.486;2023-06-24T12:03:56;2.78;;;1.77;;
39426;SDS011;25938;48.470;1.486;2023-06-24T12:06:22;1.33;;;1.08;;
39426;SDS011;25938;48.470;1.486;2023-06-24T12:08:48;1.58;;;1.38;;
39426;SDS011;25938;48.470;1.486;2023-06-24T12:11:14;1.60;;;1.25;;
39426;SDS011;25938;48.470;1.486;2023-06-24T12:13:40;1.42;;;1.20;;
39426;SDS011;25938;48.470;1.486;2023-06-24T12:16:06;0.98;;;0.90;;
39426;SDS011;25938;48.470;1.486;2023-06-24T12:18:32;0.63;;;0.63;;
39426;SDS011;25938;48.470;1.486;2023-06-24T12:20:58;1.08;;;1.05;;
39426;SDS011;25938;48.470;1.486;2023-06-24T12:23:24;1.13;;;1.00;;
39426;SDS011;25938;48.470;1.486;2023-06-24T12:25:50;0.85;;;0.80;;
39426;SDS011;25938;48.470;1.486;2023-06-24T12:28:15;1.10;;;0.90;;
39426;SDS011;25938;48.470;1.486;2023-06-24T12:30:41;1.60;;;1.02;;
39426;SDS011;25938;48.470;1.486;2023-06-24T12:33:08;0.82;;;0.82;;
39426;SDS011;25938;48.470;1.486;2023-06-24T12:35:34;1.48;;;1.38;;
39426;SDS011;25938;48.470;1.486;2023-06-24T12:38:00;1.92;;;1.30;;
39426;SDS011;25938;48.470;1.486;2023-06-24T12:40:26;1.42;;;0.93;;
39426;SDS011;25938;48.470;1.486;2023-06-24T12:42:52;0.80;;;0.80;;
39426;SDS011;25938;48.470;1.486;2023-06-24T12:45:17;1.52;;;1.42;;
39426;SDS011;25938;48.470;1.486;2023-06-24T12:47:44;1.00;;;1.00;;
39426;SDS011;25938;48.470;1.486;2023-06-24T12:50:10;1.17;;;1.08;;
39426;SDS011;25938;48.470;1.486;2023-06-24T12:52:36;1.23;;;1.00;;
39426;SDS011;25938;48.470;1.486;2023-06-24T12:55:04;1.85;;;1.45;;
39426;SDS011;25938;48.470;1.486;2023-06-24T12:57:30;1.20;;;1.10;;
39426;SDS011;25938;48.470;1.486;2023-06-24T12:59:56;3.63;;;1.50;;
39426;SDS011;25938;48.470;1.486;2023-06-24T13:02:22;1.33;;;1.23;;
39426;SDS011;25938;48.470;1.486;2023-06-24T13:04:48;0.85;;;0.68;;
39426;SDS011;25938;48.470;1.486;2023-06-24T13:07:14;0.95;;;0.90;;
39426;SDS011;25938;48.470;1.486;2023-06-24T13:09:40;1.10;;;1.00;;
39426;SDS011;25938;48.470;1.486;2023-06-24T13:12:06;1.08;;;1.00;;
39426;SDS011;25938;48.470;1.486;2023-06-24T13:14:33;1.55;;;0.98;;
39426;SDS011;25938;48.470;1.486;2023-06-24T13:16:59;1.02;;;0.80;;
39426;SDS011;25938;48.470;1.486;2023-06-24T13:19:25;1.23;;;1.13;;
39426;SDS011;25938;48.470;1.486;2023-06-24T13:21:51;1.20;;;1.10;;
39426;SDS011;25938;48.470;1.486;2023-06-24T13:24:17;1.33;;;1.23;;
39426;SDS011;25938;48.470;1.486;2023-06-24T13:26:43;1.60;;;1.00;;
39426;SDS011;25938;48.470;1.486;2023-06-24T13:29:09;0.88;;;0.75;;
39426;SDS011;25938;48.470;1.486;2023-06-24T13:31:36;0.82;;;0.82;;
39426;SDS011;25938;48.470;1.486;2023-06-24T13:34:02;0.90;;;0.90;;
39426;SDS011;25938;48.470;1.486;2023-06-24T13:36:32;0.80;;;0.80;;
39426;SDS011;25938;48.470;1.486;2023-06-24T13:39:06;1.40;;;1.20;;
39426;SDS011;25938;48.470;1.486;2023-06-24T13:41:32;0.85;;;0.85;;
39426;SDS011;25938;48.470;1.486;2023-06-24T13:44:02;1.42;;;1.25;;
39426;SDS011;25938;48.470;1.486;2023-06-24T13:46:29;1.30;;;1.10;;
39426;SDS011;25938;48.470;1.486;2023-06-24T13:48:55;1.50;;;1.25;;
39426;SDS011;25938;48.470;1.486;2023-06-24T13:51:21;1.98;;;1.73;;
39426;SDS011;25938;48.470;1.486;2023-06-24T13:53:48;0.80;;;0.80;;
39426;SDS011;25938;48.470;1.486;2023-06-24T13:56:16;0.73;;;0.68;;
39426;SDS011;25938;48.470;1.486;2023-06-24T13:58:42;1.33;;;1.23;;
39426;SDS011;25938;48.470;1.486;2023-06-24T14:01:08;1.08;;;0.98;;
39426;SDS011;25938;48.470;1.486;2023-06-24T14:03:34;1.80;;;1.00;;
39426;SDS011;25938;48.470;1.486;2023-06-24T14:06:00;2.05;;;1.67;;
39426;SDS011;25938;48.470;1.486;2023-06-24T14:08:27;1.38;;;1.13;;
39426;SDS011;25938;48.470;1.486;2023-06-24T14:10:54;1.40;;;1.25;;
39426;SDS011;25938;48.470;1.486;2023-06-24T14:13:20;0.77;;;0.77;;
39426;SDS011;25938;48.470;1.486;2023-06-24T14:15:46;1.05;;;1.05;;
39426;SDS011;25938;48.470;1.486;2023-06-24T14:18:12;1.20;;;1.10;;
39426;SDS011;25938;48.470;1.486;2023-06-24T14:20:38;1.13;;;1.00;;
39426;SDS011;25938;48.470;1.486;2023-06-24T14:23:05;1.20;;;1.10;;
39426;SDS011;25938;48.470;1.486;2023-06-24T14:25:31;1.17;;;1.10;;
39426;SDS011;25938;48.470;1.486;2023-06-24T14:27:57;1.25;;;0.93;;
39426;SDS011;25938;48.470;1.486;2023-06-24T14:30:23;1.05;;;0.95;;
39426;SDS011;25938;48.470;1.486;2023-06-24T14:32:49;1.08;;;0.98;;
39426;SDS011;25938;48.470;1.486;2023-06-24T14:35:15;0.80;;;0.80;;
39426;SDS011;25938;48.470;1.486;2023-06-24T14:37:41;1.05;;;0.88;;
39426;SDS011;25938;48.470;1.486;2023-06-24T14:40:07;1.38;;;1.20;;
39426;SDS011;25938;48.470;1.486;2023-06-24T14:42:35;1.10;;;1.00;;
39426;SDS011;25938;48.470;1.486;2023-06-24T14:45:01;1.30;;;1.20;;
39426;SDS011;25938;48.470;1.486;2023-06-24T14:47:27;1.00;;;1.00;;
39426;SDS011;25938;48.470;1.486;2023-06-24T14:49:53;1.40;;;1.25;;
39426;SDS011;25938;48.470;1.486;2023-06-24T14:52:19;1.33;;;1.23;;
39426;SDS011;25938;48.470;1.486;2023-06-24T14:54:46;1.25;;;1.15;;
39426;SDS011;25938;48.470;1.486;2023-06-24T14:57:12;1.30;;;1.20;;
39426;SDS011;25938;48.470;1.486;2023-06-24T14:59:40;1.50;;;1.40;;
39426;SDS011;25938;48.470;1.486;2023-06-24T15:02:06;0.95;;;0.95;;
39426;SDS011;25938;48.470;1.486;2023-06-24T15:04:32;1.40;;;1.10;;
39426;SDS011;25938;48.470;1.486;2023-06-24T15:06:59;1.17;;;1.08;;
39426;SDS011;25938;48.470;1.486;2023-06-24T15:09:25;1.02;;;0.98;;